createdAt,value
2017-09-03T00:00:21.540Z,12.80
2017-09-03T00:02:49.004Z,12.90
2017-09-03T00:05:17.253Z,12.80
2017-09-03T00:07:44.756Z,12.70
2017-09-03T00:10:12.313Z,12.60
2017-09-03T00:12:39.935Z,12.60
2017-09-03T00:17:33.176Z,12.50
2017-09-03T00:20:00.685Z,12.40
2017-09-03T00:22:28.144Z,12.40
2017-09-03T00:24:55.603Z,12.40
2017-09-03T00:27:23.299Z,12.40
2017-09-03T00:29:50.760Z,12.40
2017-09-03T00:32:18.294Z,12.40
2017-09-03T00:34:45.837Z,12.30
2017-09-03T00:37:14.078Z,12.20
2017-09-03T00:39:41.588Z,12.20
2017-09-03T00:42:09.076Z,12.20
2017-09-03T00:44:37.311Z,12.10
2017-09-03T00:47:04.879Z,12.10
2017-09-03T00:49:32.424Z,12.10
2017-09-03T00:51:59.879Z,12.10
2017-09-03T00:54:27.412Z,12.10
2017-09-03T00:56:54.901Z,12.10
2017-09-03T00:59:22.360Z,12.00
2017-09-03T01:01:49.836Z,12.00
2017-09-03T01:04:17.311Z,12.00
2017-09-03T01:06:44.925Z,11.90
2017-09-03T01:09:12.388Z,11.90
2017-09-03T01:11:39.852Z,11.90
2017-09-03T01:14:07.332Z,11.90
2017-09-03T01:16:34.892Z,11.90
2017-09-03T01:19:02.360Z,11.80
2017-09-03T01:21:30.724Z,11.70
2017-09-03T01:23:58.268Z,11.70
2017-09-03T01:26:26.527Z,11.70
2017-09-03T01:28:54.251Z,11.70
2017-09-03T01:31:21.816Z,11.60
2017-09-03T01:33:49.291Z,11.60
2017-09-03T01:36:16.804Z,11.60
2017-09-03T01:38:44.361Z,11.60
2017-09-03T01:41:11.888Z,11.60
2017-09-03T01:43:39.441Z,11.50
2017-09-03T01:46:06.896Z,11.50
2017-09-03T01:48:34.422Z,11.50
2017-09-03T01:51:01.924Z,11.50
2017-09-03T01:53:29.399Z,11.40
2017-09-03T01:55:56.869Z,11.40
2017-09-03T01:58:24.593Z,11.40
2017-09-03T02:00:52.061Z,11.40
2017-09-03T02:03:19.541Z,11.30
2017-09-03T02:05:47.040Z,11.20
2017-09-03T02:08:14.565Z,11.20
2017-09-03T02:10:42.816Z,11.20
2017-09-03T02:13:10.292Z,11.20
2017-09-03T02:15:37.758Z,11.20
2017-09-03T02:18:05.220Z,11.20
2017-09-03T02:20:32.712Z,11.20
2017-09-03T02:23:00.203Z,11.20
2017-09-03T02:25:28.431Z,11.10
2017-09-03T02:27:56.004Z,11.10
2017-09-03T02:30:23.472Z,11.10
2017-09-03T02:32:50.997Z,11.10
2017-09-03T02:35:18.483Z,11.00
2017-09-03T02:37:45.955Z,11.00
2017-09-03T02:40:13.429Z,11.00
2017-09-03T02:42:40.908Z,11.00
2017-09-03T02:45:08.371Z,10.90
2017-09-03T02:47:35.833Z,10.90
2017-09-03T02:50:03.492Z,10.90
2017-09-03T02:52:30.951Z,10.90
2017-09-03T02:54:58.477Z,10.90
2017-09-03T02:57:26.733Z,10.80
2017-09-03T02:59:54.206Z,10.80
2017-09-03T03:02:21.718Z,10.80
2017-09-03T03:04:49.268Z,10.80
2017-09-03T03:07:17.515Z,10.80
2017-09-03T03:09:45.017Z,10.80
2017-09-03T03:12:12.477Z,10.80
2017-09-03T03:14:39.950Z,10.80
2017-09-03T03:17:07.628Z,10.80
2017-09-03T03:19:35.085Z,10.70
2017-09-03T03:22:02.624Z,10.70
2017-09-03T03:24:30.110Z,10.70
2017-09-03T03:26:57.604Z,10.60
2017-09-03T03:29:25.063Z,10.60
2017-09-03T03:31:52.544Z,10.60
2017-09-03T03:34:20.031Z,10.60
2017-09-03T03:36:47.492Z,10.60
2017-09-03T03:39:14.976Z,10.50
2017-09-03T03:41:42.457Z,10.50
2017-09-03T03:44:10.699Z,10.50
2017-09-03T03:46:38.255Z,10.40
2017-09-03T03:49:05.804Z,10.40
2017-09-03T03:51:33.348Z,10.40
2017-09-03T03:54:00.889Z,10.40
2017-09-03T03:56:28.341Z,10.30
2017-09-03T03:58:56.588Z,10.30
2017-09-03T04:01:24.060Z,10.30
2017-09-03T04:03:51.576Z,10.30
2017-09-03T04:06:19.052Z,10.30
2017-09-03T04:08:46.555Z,10.30
2017-09-03T04:11:14.109Z,10.30
2017-09-03T04:13:41.598Z,10.30
2017-09-03T04:16:09.051Z,10.30
2017-09-03T04:18:36.524Z,10.30
2017-09-03T04:21:04.204Z,10.30
2017-09-03T04:23:31.660Z,10.20
2017-09-03T04:25:59.197Z,10.20
2017-09-03T04:28:26.700Z,10.10
2017-09-03T04:30:54.181Z,10.10
2017-09-03T04:33:21.719Z,10.10
2017-09-03T04:35:49.270Z,10.00
2017-09-03T04:38:16.735Z,10.00
2017-09-03T04:40:44.354Z,10.00
2017-09-03T04:43:11.907Z,10.00
2017-09-03T04:45:39.361Z,10.00
2017-09-03T04:48:06.880Z,10.00
2017-09-03T04:50:34.425Z,9.90
2017-09-03T04:53:01.876Z,9.90
2017-09-03T04:55:29.407Z,9.90
2017-09-03T04:57:56.947Z,9.90
2017-09-03T05:00:24.403Z,9.90
2017-09-03T05:02:51.935Z,9.90
2017-09-03T05:05:19.400Z,9.80
2017-09-03T05:07:46.916Z,9.80
2017-09-03T05:10:14.376Z,9.80
2017-09-03T05:12:41.827Z,9.80
2017-09-03T05:15:09.347Z,9.90
2017-09-03T05:17:36.819Z,9.90
2017-09-03T05:20:04.332Z,9.90
2017-09-03T05:22:31.837Z,9.90
2017-09-03T05:24:59.319Z,9.80
2017-09-03T05:27:26.775Z,9.90
2017-09-03T05:29:54.309Z,9.90
2017-09-03T05:32:21.863Z,9.90
2017-09-03T05:34:49.392Z,10.00
2017-09-03T05:37:16.892Z,10.00
2017-09-03T05:39:44.383Z,10.00
2017-09-03T05:42:11.855Z,10.10
2017-09-03T05:44:39.569Z,10.10
2017-09-03T05:47:07.111Z,10.10
2017-09-03T05:49:34.655Z,10.20
2017-09-03T05:52:02.125Z,10.20
2017-09-03T05:54:29.588Z,10.20
2017-09-03T05:56:57.084Z,10.30
2017-09-03T05:59:24.629Z,10.30
2017-09-03T06:01:52.088Z,10.40
2017-09-03T06:04:19.575Z,10.50
2017-09-03T06:06:47.045Z,10.50
2017-09-03T06:09:14.521Z,10.60
2017-09-03T06:11:42.041Z,10.60
2017-09-03T06:14:09.504Z,10.70
2017-09-03T06:16:37.024Z,10.70
2017-09-03T06:19:04.569Z,10.80
2017-09-03T06:21:32.072Z,10.90
2017-09-03T06:23:59.620Z,11.00
2017-09-03T06:26:27.112Z,11.10
2017-09-03T06:28:54.601Z,11.10
2017-09-03T06:31:22.060Z,11.30
2017-09-03T06:33:49.583Z,11.40
2017-09-03T06:36:17.133Z,11.50
2017-09-03T06:38:44.599Z,11.50
2017-09-03T06:41:12.937Z,11.80
2017-09-03T06:43:40.475Z,11.70
2017-09-03T06:46:07.948Z,11.80
2017-09-03T06:48:35.416Z,11.90
2017-09-03T06:51:02.881Z,12.10
2017-09-03T06:53:30.338Z,12.20
2017-09-03T06:55:57.871Z,12.30
2017-09-03T06:58:25.432Z,12.40
2017-09-03T07:00:52.887Z,12.60
2017-09-03T07:03:20.519Z,12.70
2017-09-03T07:05:47.980Z,12.80
2017-09-03T07:08:15.512Z,12.80
2017-09-03T07:10:43.740Z,13.00
2017-09-03T07:13:11.310Z,12.90
2017-09-03T07:15:38.852Z,13.00
2017-09-03T07:18:06.313Z,13.10
2017-09-03T07:20:33.776Z,13.20
2017-09-03T07:23:01.235Z,13.20
2017-09-03T07:25:28.720Z,13.30
2017-09-03T07:27:56.217Z,13.40
2017-09-03T07:30:23.671Z,13.40
2017-09-03T07:32:51.126Z,13.50
2017-09-03T07:35:18.680Z,13.70
2017-09-03T07:37:46.138Z,13.70
2017-09-03T07:40:13.599Z,13.80
2017-09-03T07:42:41.412Z,13.90
2017-09-03T07:45:08.866Z,14.00
2017-09-03T07:47:36.404Z,14.10
2017-09-03T07:50:03.908Z,14.20
2017-09-03T07:52:31.392Z,14.30
2017-09-03T07:54:58.927Z,14.40
2017-09-03T07:57:26.396Z,14.50
2017-09-03T07:59:53.912Z,14.50
2017-09-03T08:02:21.375Z,14.70
2017-09-03T08:04:49.624Z,14.80
2017-09-03T08:07:17.076Z,14.70
2017-09-03T08:09:44.611Z,14.80
2017-09-03T08:12:12.132Z,14.90
2017-09-03T08:14:39.792Z,15.00
2017-09-03T08:17:07.269Z,15.10
2017-09-03T08:19:34.716Z,15.20
2017-09-03T08:22:02.304Z,15.30
2017-09-03T08:24:29.760Z,15.40
2017-09-03T08:26:57.220Z,15.40
2017-09-03T08:29:24.805Z,15.50
2017-09-03T08:31:52.667Z,15.60
2017-09-03T08:34:20.137Z,15.60
2017-09-03T08:36:47.683Z,15.60
2017-09-03T08:39:15.281Z,15.70
2017-09-03T08:41:42.767Z,15.80
2017-09-03T08:44:10.336Z,15.90
2017-09-03T08:46:37.805Z,16.00
2017-09-03T08:49:05.600Z,16.10
2017-09-03T08:51:33.143Z,16.10
2017-09-03T08:54:00.604Z,16.20
2017-09-03T08:56:28.344Z,16.30
2017-09-03T08:58:55.876Z,16.40
2017-09-03T09:01:23.336Z,16.50
2017-09-03T09:03:50.948Z,16.50
2017-09-03T09:06:18.507Z,16.70
2017-09-03T09:08:46.053Z,16.80
2017-09-03T09:11:13.708Z,16.90
2017-09-03T09:13:41.160Z,17.00
2017-09-03T09:16:08.704Z,17.20
2017-09-03T09:18:36.243Z,17.30
2017-09-03T09:21:03.720Z,17.40
2017-09-03T09:23:31.976Z,17.70
2017-09-03T09:25:59.428Z,17.70
2017-09-03T09:28:26.879Z,17.80
2017-09-03T09:30:54.344Z,17.90
2017-09-03T09:33:21.924Z,17.90
2017-09-03T09:35:49.376Z,18.00
2017-09-03T09:38:16.828Z,18.10
2017-09-03T09:40:44.553Z,18.10
2017-09-03T09:43:12.112Z,18.20
2017-09-03T09:45:39.561Z,18.30
2017-09-03T09:48:07.036Z,18.40
2017-09-03T09:50:34.497Z,18.50
2017-09-03T09:53:01.956Z,18.60
2017-09-03T09:55:29.435Z,18.80
2017-09-03T09:57:56.883Z,18.90
2017-09-03T10:00:24.333Z,19.00
2017-09-03T10:02:51.864Z,19.10
2017-09-03T10:05:19.404Z,19.30
2017-09-03T10:07:46.951Z,19.40
2017-09-03T10:10:14.492Z,19.60
2017-09-03T10:12:42.036Z,19.70
2017-09-03T10:15:09.584Z,19.80
2017-09-03T10:17:37.124Z,19.90
2017-09-03T10:20:04.623Z,20.20
2017-09-03T10:22:32.112Z,20.30
2017-09-03T10:24:59.656Z,20.60
2017-09-03T10:27:27.240Z,20.90
2017-09-03T10:29:54.712Z,21.00
2017-09-03T10:32:22.180Z,21.10
2017-09-03T10:34:49.690Z,21.20
2017-09-03T10:37:17.104Z,21.20
2017-09-03T10:39:44.608Z,21.40
2017-09-03T10:42:12.121Z,21.60
2017-09-03T10:44:39.588Z,21.80
2017-09-03T10:47:07.132Z,21.60
2017-09-03T10:49:34.597Z,21.70
2017-09-03T10:52:02.292Z,21.80
2017-09-03T10:54:29.740Z,21.70
2017-09-03T10:56:57.188Z,21.90
2017-09-03T10:59:24.764Z,22.20
2017-09-03T11:01:52.308Z,22.20
2017-09-03T11:04:19.851Z,22.30
2017-09-03T11:06:47.499Z,22.20
2017-09-03T11:09:14.943Z,22.20
2017-09-03T11:11:42.412Z,22.10
2017-09-03T11:14:10.127Z,21.90
2017-09-03T11:16:37.584Z,21.60
2017-09-03T11:19:05.127Z,21.50
2017-09-03T11:21:32.591Z,21.50
2017-09-03T11:24:00.036Z,21.50
2017-09-03T11:26:27.551Z,21.20
2017-09-03T11:28:55.010Z,20.80
2017-09-03T11:31:22.460Z,20.70
2017-09-03T11:33:49.947Z,20.70
2017-09-03T11:36:17.424Z,21.10
2017-09-03T11:38:44.964Z,22.60
2017-09-03T11:41:12.608Z,24.80
2017-09-03T11:43:40.063Z,26.40
2017-09-03T11:46:07.512Z,27.40
2017-09-03T11:48:34.971Z,29.30
2017-09-03T11:51:02.477Z,30.80
2017-09-03T11:53:30.119Z,31.80
2017-09-03T11:55:57.579Z,31.90
2017-09-03T11:58:25.033Z,32.30
2017-09-03T12:00:52.543Z,32.40
2017-09-03T12:03:20.203Z,30.90
2017-09-03T12:05:47.703Z,29.90
2017-09-03T12:08:15.152Z,29.20
2017-09-03T12:10:42.620Z,29.50
2017-09-03T12:13:10.103Z,30.70
2017-09-03T12:15:37.559Z,30.90
2017-09-03T12:18:05.011Z,30.30
2017-09-03T12:20:32.652Z,29.50
2017-09-03T12:23:00.165Z,28.90
2017-09-03T12:25:27.704Z,28.10
2017-09-03T12:27:55.244Z,27.30
2017-09-03T12:30:22.704Z,26.80
2017-09-03T12:32:50.241Z,26.60
2017-09-03T12:35:17.788Z,26.50
2017-09-03T12:37:45.328Z,26.30
2017-09-03T12:40:12.885Z,26.30
2017-09-03T12:42:40.411Z,25.90
2017-09-03T12:45:07.956Z,27.40
2017-09-03T12:47:35.505Z,29.50
2017-09-03T12:50:03.044Z,31.40
2017-09-03T12:52:30.634Z,33.00
2017-09-03T12:54:58.104Z,34.50
2017-09-03T12:57:25.567Z,35.60
2017-09-03T12:59:53.085Z,35.10
2017-09-03T13:02:20.540Z,34.10
2017-09-03T13:04:48.004Z,33.00
2017-09-03T13:07:15.543Z,32.00
2017-09-03T13:09:43.019Z,30.10
2017-09-03T13:12:10.587Z,29.70
2017-09-03T13:14:38.068Z,30.60
2017-09-03T13:17:05.516Z,31.90
2017-09-03T13:19:33.060Z,32.60
2017-09-03T13:22:00.608Z,32.60
2017-09-03T13:24:28.064Z,33.90
2017-09-03T13:26:55.524Z,35.00
2017-09-03T13:29:22.971Z,34.60
2017-09-03T13:31:50.489Z,33.90
2017-09-03T13:34:18.021Z,33.20
2017-09-03T13:36:45.559Z,33.60
2017-09-03T13:39:13.017Z,34.10
2017-09-03T13:41:40.472Z,33.80
2017-09-03T13:44:08.100Z,32.70
2017-09-03T13:46:35.590Z,31.50
2017-09-03T13:49:03.028Z,31.00
2017-09-03T13:51:30.721Z,30.50
2017-09-03T13:53:58.263Z,30.00
2017-09-03T13:56:25.820Z,30.10
2017-09-03T13:58:53.453Z,31.30
2017-09-03T14:01:20.904Z,32.80
2017-09-03T14:03:48.360Z,33.10
2017-09-03T14:06:16.088Z,33.20
2017-09-03T14:08:43.548Z,32.90
2017-09-03T14:11:11.007Z,32.50
2017-09-03T14:13:38.725Z,31.20
2017-09-03T14:16:06.261Z,30.10
2017-09-03T14:18:33.760Z,29.40
2017-09-03T14:21:01.253Z,28.90
2017-09-03T14:23:28.748Z,28.10
2017-09-03T14:25:56.199Z,27.40
2017-09-03T14:28:23.700Z,27.00
2017-09-03T14:30:51.243Z,26.70
2017-09-03T14:33:18.785Z,26.60
2017-09-03T14:35:46.248Z,26.50
2017-09-03T14:38:13.716Z,26.80
2017-09-03T14:40:41.220Z,28.10
2017-09-03T14:43:08.760Z,29.60
2017-09-03T14:45:36.209Z,31.80
2017-09-03T14:48:03.948Z,33.80
2017-09-03T14:50:31.396Z,35.30
2017-09-03T14:52:58.925Z,36.20
2017-09-03T14:55:26.468Z,37.10
2017-09-03T14:57:54.008Z,37.80
2017-09-03T15:00:21.556Z,38.00
2017-09-03T15:02:49.021Z,38.10
2017-09-03T15:05:16.492Z,37.20
2017-09-03T15:07:43.947Z,35.60
2017-09-03T15:10:11.654Z,34.20
2017-09-03T15:12:39.173Z,33.20
2017-09-03T15:15:06.708Z,32.80
2017-09-03T15:17:34.268Z,32.70
2017-09-03T15:20:01.724Z,33.00
2017-09-03T15:22:29.176Z,33.20
2017-09-03T15:24:56.636Z,34.00
2017-09-03T15:27:24.122Z,34.90
2017-09-03T15:29:51.577Z,35.60
2017-09-03T15:32:19.178Z,36.70
2017-09-03T15:34:46.880Z,37.80
2017-09-03T15:37:14.428Z,38.60
2017-09-03T15:39:41.969Z,38.90
2017-09-03T15:42:09.525Z,38.00
2017-09-03T15:44:37.000Z,37.70
2017-09-03T15:47:04.500Z,37.60
2017-09-03T15:49:32.048Z,37.50
2017-09-03T15:51:59.599Z,37.20
2017-09-03T15:54:27.631Z,37.30
2017-09-03T15:56:55.247Z,37.00
2017-09-03T15:59:22.711Z,35.40
2017-09-03T16:01:50.399Z,34.20
2017-09-03T16:04:17.931Z,33.30
2017-09-03T16:06:45.486Z,32.40
2017-09-03T16:09:12.964Z,31.80
2017-09-03T16:11:40.426Z,32.00
2017-09-03T16:14:07.877Z,33.00
2017-09-03T16:16:35.356Z,33.70
2017-09-03T16:19:02.891Z,33.80
2017-09-03T16:21:30.437Z,33.80
2017-09-03T16:23:57.978Z,34.20
2017-09-03T16:26:25.432Z,34.70
2017-09-03T16:28:53.008Z,34.90
2017-09-03T16:31:20.561Z,35.10
2017-09-03T16:33:48.013Z,35.20
2017-09-03T16:36:15.583Z,35.60
2017-09-03T16:38:43.036Z,35.80
2017-09-03T16:41:10.489Z,36.00
2017-09-03T16:43:38.145Z,36.10
2017-09-03T16:46:05.687Z,36.10
2017-09-03T16:48:33.144Z,36.10
2017-09-03T16:51:00.876Z,36.00
2017-09-03T16:53:28.338Z,35.70
2017-09-03T16:55:55.791Z,35.30
2017-09-03T16:58:23.258Z,35.00
2017-09-03T17:00:50.732Z,34.60
2017-09-03T17:03:18.219Z,34.20
2017-09-03T17:05:45.700Z,33.80
2017-09-03T17:08:14.108Z,33.30
2017-09-03T17:10:41.774Z,33.30
2017-09-03T17:13:09.227Z,33.10
2017-09-03T17:15:36.750Z,32.90
2017-09-03T17:18:04.204Z,32.70
2017-09-03T17:20:33.933Z,32.40
2017-09-03T17:23:01.520Z,32.10
2017-09-03T17:25:29.739Z,31.10
2017-09-03T17:27:57.228Z,31.10
2017-09-03T17:30:25.601Z,30.30
2017-09-03T17:32:53.057Z,29.50
2017-09-03T17:38:34.709Z,27.90
2017-09-03T17:41:03.800Z,27.20
2017-09-03T17:43:32.057Z,26.60
2017-09-03T17:45:59.536Z,26.00
2017-09-03T17:48:26.984Z,25.40
2017-09-03T17:50:54.431Z,25.00
2017-09-03T17:53:21.903Z,24.60
2017-09-03T17:55:49.355Z,24.10
2017-09-03T17:58:16.821Z,23.80
2017-09-03T18:00:44.305Z,23.50
2017-09-03T18:03:11.748Z,23.20
2017-09-03T18:05:39.195Z,22.90
2017-09-03T18:08:06.672Z,22.70
2017-09-03T18:10:34.115Z,22.40
2017-09-03T18:13:01.564Z,22.20
2017-09-03T18:15:29.044Z,22.00
2017-09-03T18:17:56.497Z,21.80
2017-09-03T18:20:23.952Z,21.60
2017-09-03T18:22:51.416Z,21.40
2017-09-03T18:25:18.871Z,21.30
2017-09-03T18:27:46.319Z,21.10
2017-09-03T18:30:16.752Z,21.00
2017-09-03T18:32:44.202Z,20.80
2017-09-03T18:35:14.160Z,20.80
2017-09-03T18:37:42.114Z,20.60
2017-09-03T18:40:10.352Z,20.50
2017-09-03T18:42:42.848Z,20.40
2017-09-03T18:45:10.291Z,20.30
2017-09-03T18:47:37.736Z,20.20
2017-09-03T18:50:08.184Z,20.10
2017-09-03T18:52:52.351Z,20.00
2017-09-03T18:55:19.804Z,19.90
2017-09-03T19:00:48.744Z,19.70
2017-09-03T19:03:17.216Z,19.60
2017-09-03T19:05:44.668Z,19.50
2017-09-03T19:08:12.332Z,19.40
2017-09-03T19:10:40.184Z,19.20
2017-09-03T19:13:07.624Z,19.20
2017-09-03T19:15:35.080Z,19.10
2017-09-03T19:18:02.532Z,19.00
2017-09-03T19:20:29.988Z,19.00
2017-09-03T19:22:58.204Z,18.80
2017-09-03T19:25:25.884Z,18.80
2017-09-03T19:27:53.439Z,18.80
2017-09-03T19:30:20.895Z,18.70
2017-09-03T19:32:48.996Z,18.60
2017-09-03T19:35:16.454Z,18.60
2017-09-03T19:37:43.904Z,18.60
2017-09-03T19:40:11.384Z,18.50
2017-09-03T19:42:38.913Z,18.40
2017-09-03T19:45:06.447Z,18.40
2017-09-03T19:47:33.915Z,18.30
2017-09-03T19:50:01.399Z,18.30
2017-09-03T19:52:28.949Z,18.20
2017-09-03T19:54:56.493Z,18.10
2017-09-03T19:57:24.135Z,18.00
2017-09-03T19:59:51.588Z,18.00
2017-09-03T20:02:19.039Z,17.90
2017-09-03T20:04:46.660Z,17.90
2017-09-03T20:07:14.216Z,17.80
2017-09-03T20:09:41.756Z,17.80
2017-09-03T20:12:09.399Z,17.80
2017-09-03T20:14:36.864Z,17.80
2017-09-03T20:17:04.320Z,17.70
2017-09-03T20:19:31.904Z,17.70
2017-09-03T20:21:59.415Z,17.70
2017-09-03T20:24:26.959Z,17.60
2017-09-03T20:26:54.513Z,17.60
2017-09-03T20:29:22.057Z,17.50
2017-09-03T20:31:49.580Z,17.40
2017-09-03T20:34:17.128Z,17.30
2017-09-03T20:36:44.677Z,17.30
2017-09-03T20:39:12.413Z,17.30
2017-09-03T20:41:39.874Z,17.30
2017-09-03T20:44:07.344Z,17.20
2017-09-03T20:46:34.906Z,17.20
2017-09-03T20:49:02.448Z,17.20
2017-09-03T20:51:29.998Z,17.20
2017-09-03T20:53:57.677Z,17.20
2017-09-03T20:56:25.127Z,17.20
2017-09-03T20:58:52.624Z,17.20
2017-09-03T21:01:20.170Z,17.20
2017-09-03T21:03:47.619Z,17.10
2017-09-03T21:06:15.841Z,17.10
2017-09-03T21:08:43.303Z,17.00
2017-09-03T21:11:10.785Z,17.00
2017-09-03T21:13:38.288Z,17.00
2017-09-03T21:16:05.783Z,17.00
2017-09-03T21:18:33.383Z,17.00
2017-09-03T21:21:00.843Z,17.00
2017-09-03T21:23:28.568Z,17.00
2017-09-03T21:25:56.024Z,17.00
2017-09-03T21:28:23.541Z,17.00
2017-09-03T21:30:51.096Z,17.00
2017-09-03T21:33:18.640Z,16.90
2017-09-03T21:35:46.199Z,16.90
2017-09-03T21:38:13.751Z,16.90
2017-09-03T21:40:41.923Z,16.90
2017-09-03T21:43:09.448Z,16.80
2017-09-03T21:45:36.945Z,16.70
2017-09-03T21:48:04.432Z,16.70
2017-09-03T21:50:31.976Z,16.60
2017-09-03T21:52:59.519Z,16.60
2017-09-03T21:55:26.964Z,16.50
2017-09-03T21:57:54.468Z,16.50
2017-09-03T22:00:22.016Z,16.50
2017-09-03T22:02:49.463Z,16.40
2017-09-03T22:05:17.002Z,16.40
2017-09-03T22:07:44.539Z,16.40
2017-09-03T22:10:12.162Z,16.40
2017-09-03T22:12:39.676Z,16.40
2017-09-03T22:15:07.128Z,16.30
2017-09-03T22:17:34.591Z,16.30
2017-09-03T22:20:02.048Z,16.30
2017-09-03T22:22:29.575Z,16.30
2017-09-03T22:24:57.284Z,16.30
2017-09-03T22:27:24.772Z,16.30
2017-09-03T22:29:52.319Z,16.40
2017-09-03T22:32:19.852Z,16.30
2017-09-03T22:34:48.474Z,16.20
2017-09-03T22:37:16.036Z,16.20
2017-09-03T22:39:43.520Z,16.20
2017-09-03T22:42:10.984Z,16.10
2017-09-03T22:44:38.510Z,16.10
2017-09-03T22:47:06.049Z,16.00
2017-09-03T22:49:33.590Z,16.00
2017-09-03T22:52:01.135Z,15.90
2017-09-03T22:54:30.681Z,15.90
2017-09-03T22:57:00.852Z,15.80
2017-09-03T22:59:33.112Z,15.80
2017-09-03T23:02:01.303Z,15.70
2017-09-03T23:04:29.638Z,15.70
2017-09-03T23:06:57.088Z,15.60
2017-09-03T23:09:24.583Z,15.50
2017-09-03T23:11:52.139Z,15.50
2017-09-03T23:14:20.392Z,15.40
2017-09-03T23:16:48.148Z,15.40
2017-09-03T23:19:15.600Z,15.40
2017-09-03T23:21:43.125Z,15.40
2017-09-03T23:24:10.772Z,15.40
2017-09-03T23:26:38.315Z,15.40
2017-09-03T23:29:05.817Z,15.30
2017-09-03T23:31:33.388Z,15.30
2017-09-03T23:34:00.835Z,15.30
2017-09-03T23:36:28.284Z,15.30
2017-09-03T23:38:55.988Z,15.30
2017-09-03T23:41:23.444Z,15.20
2017-09-03T23:43:50.975Z,15.20
2017-09-03T23:46:18.516Z,15.10
2017-09-03T23:48:45.971Z,15.10
2017-09-03T23:51:13.428Z,15.00
2017-09-03T23:53:40.941Z,15.00
2017-09-03T23:56:08.484Z,14.90
2017-09-03T23:58:35.932Z,14.80
